Terminal Aerodrome Forecast
Issued by NWS Melbourne, FL

Current Version | Previous Version | Text Only | Print | Product List | Glossary On
Versions: 1 2 3 4 5 6 7 8 9 10 11 12 13 14 15
000
FTUS42 KMLB 070308 AAA
TAFDAB
TAF AMD
KDAB 070308Z 0703/0724 30005KT P6SM FEW080 SCT250
     FM070900 30007KT P6SM FEW080 SCT250
     FM071400 32012KT P6SM FEW035 FEW250
     FM072100 02010KT P6SM SCT040=

USA.gov is the U.S. government's official web portal to all federal, state and local government web resources and services.